Time;durP1;ratioP1;P1;durP2;ratioP2;P2;SDS_P1;SDS_P2;PMS_P1;PMS_P2;Temp;Humidity;BMP_temperature;BMP_pressure;BME280_temperature;BME280_humidity;BME280_pressure;Samples;Min_cycle;Max_cycle;Signal;HPM_P1;HPM_P2
2024/01/28 00:00:43;;;;;;;20.50;8.38;;;0.40;99.90;;;;;;6148595;23;20018;-92
2024/01/28 00:03:10;;;;;;;24.45;8.35;;;0.40;99.90;;;;;;6148698;23;20018;-92
2024/01/28 00:05:38;;;;;;;18.08;7.90;;;0.40;99.90;;;;;;6148668;23;20014;-92
2024/01/28 00:08:05;;;;;;;20.80;7.85;;;0.40;99.90;;;;;;6148877;23;20444;-92
2024/01/28 00:10:32;;;;;;;25.23;8.20;;;0.40;99.90;;;;;;6148804;23;20058;-92
2024/01/28 00:12:59;;;;;;;20.85;8.25;;;0.40;99.90;;;;;;6148618;23;20009;-91
2024/01/28 00:15:25;;;;;;;22.85;9.40;;;0.40;99.90;;;;;;6148897;23;20089;-91
2024/01/28 00:17:58;;;;;;;21.08;8.43;;;0.40;99.90;;;;;;6148507;23;20018;-91
2024/01/28 00:20:24;;;;;;;19.65;7.70;;;0.40;99.90;;;;;;6148888;23;20013;-91
2024/01/28 00:22:51;;;;;;;18.75;7.60;;;0.60;99.90;;;;;;6148483;23;20009;-91
2024/01/28 00:25:18;;;;;;;20.23;8.25;;;0.40;99.90;;;;;;6148892;23;20013;-92
2024/01/28 00:27:44;;;;;;;16.15;7.57;;;0.40;99.90;;;;;;6148769;23;20006;-92
2024/01/28 00:30:13;;;;;;;21.20;9.07;;;0.40;99.90;;;;;;6172939;23;20401;-92
2024/01/28 00:32:41;;;;;;;27.30;8.45;;;0.40;99.90;;;;;;6148576;23;20115;-91
2024/01/28 00:35:08;;;;;;;21.15;8.27;;;0.40;99.90;;;;;;6148467;23;20849;-92
2024/01/28 00:37:34;;;;;;;20.33;8.30;;;0.40;99.90;;;;;;6148437;23;20010;-92
2024/01/28 00:40:03;;;;;;;24.88;8.55;;;1.00;99.90;;;;;;6148178;23;20440;-91
2024/01/28 00:42:30;;;;;;;21.33;8.05;;;0.40;99.90;;;;;;6149090;23;20025;-92
2024/01/28 00:44:57;;;;;;;21.67;7.97;;;0.40;99.90;;;;;;6148652;23;20017;-92
2024/01/28 00:47:23;;;;;;;21.65;8.13;;;0.40;99.90;;;;;;6148669;23;20017;-93
2024/01/28 00:49:50;;;;;;;14.93;7.05;;;0.40;99.90;;;;;;6148663;23;20024;-92
2024/01/28 00:52:16;;;;;;;16.45;8.20;;;0.40;99.90;;;;;;6148418;23;20448;-91
2024/01/28 00:54:43;;;;;;;22.77;7.45;;;0.40;99.90;;;;;;6148714;23;20014;-92
2024/01/28 00:57:10;;;;;;;16.67;7.88;;;0.40;99.90;;;;;;6148476;23;20015;-92
2024/01/28 00:59:36;;;;;;;17.38;7.55;;;1.40;99.90;;;;;;6148553;23;20092;-92
2024/01/28 01:02:03;;;;;;;15.50;7.22;;;0.40;99.90;;;;;;6148527;23;20063;-90
2024/01/28 01:04:30;;;;;;;21.05;8.40;;;0.40;99.90;;;;;;6148257;23;20025;-92
2024/01/28 01:06:57;;;;;;;18.70;7.38;;;0.40;99.90;;;;;;6172629;23;20068;-91
2024/01/28 01:09:24;;;;;;;25.80;7.45;;;1.50;99.90;;;;;;6148344;23;20471;-91
2024/01/28 01:11:50;;;;;;;19.77;6.97;;;0.30;99.90;;;;;;6148545;23;20064;-92
2024/01/28 01:14:17;;;;;;;17.00;7.43;;;1.30;99.90;;;;;;6148655;23;20013;-92
2024/01/28 01:16:43;;;;;;;22.42;7.70;;;0.30;99.90;;;;;;6148323;23;20064;-92
2024/01/28 01:19:10;;;;;;;19.08;8.18;;;0.30;99.90;;;;;;6148232;23;20018;-91
2024/01/28 01:21:37;;;;;;;15.00;6.55;;;0.30;99.90;;;;;;6148487;23;20045;-92
2024/01/28 01:24:04;;;;;;;16.90;7.45;;;0.30;99.90;;;;;;6148688;23;20056;-92
2024/01/28 01:26:31;;;;;;;14.73;6.72;;;0.20;99.90;;;;;;6148449;23;20013;-92
2024/01/28 01:28:57;;;;;;;23.25;6.97;;;0.70;99.90;;;;;;6148410;23;20013;-91
2024/01/28 01:31:24;;;;;;;19.70;6.75;;;0.20;99.90;;;;;;6148111;23;20010;-92
2024/01/28 01:33:51;;;;;;;20.77;7.35;;;0.30;99.90;;;;;;6148527;23;20499;-92
2024/01/28 01:36:19;;;;;;;24.40;8.05;;;0.20;99.90;;;;;;6148366;23;20013;-91
2024/01/28 01:38:46;;;;;;;21.40;7.93;;;0.30;99.90;;;;;;6148600;23;20014;-90
2024/01/28 01:41:12;;;;;;;17.27;7.97;;;0.30;99.90;;;;;;6148225;23;20013;-92
2024/01/28 01:43:39;;;;;;;16.67;7.40;;;0.30;99.90;;;;;;6148169;23;20760;-91
2024/01/28 01:46:08;;;;;;;17.17;6.75;;;0.40;99.90;;;;;;6148488;23;20100;-92
2024/01/28 01:48:35;;;;;;;18.98;7.55;;;0.30;99.90;;;;;;6148282;23;20080;-92
2024/01/28 01:51:02;;;;;;;18.83;7.55;;;0.40;99.90;;;;;;6148323;23;20017;-92
2024/01/28 01:53:29;;;;;;;15.50;7.88;;;0.40;99.90;;;;;;6148505;23;20009;-92
2024/01/28 01:55:56;;;;;;;18.70;6.78;;;0.40;99.90;;;;;;6148157;23;20010;-92
2024/01/28 01:58:24;;;;;;;21.00;7.88;;;0.40;99.90;;;;;;6148417;23;20006;-92
2024/01/28 02:00:51;;;;;;;20.17;7.38;;;0.40;99.90;;;;;;6172665;23;20137;-92
2024/01/28 02:03:17;;;;;;;23.48;7.43;;;0.50;99.90;;;;;;6148119;23;20071;-91
2024/01/28 02:05:44;;;;;;;21.38;8.18;;;0.50;99.90;;;;;;6147852;23;20014;-92
2024/01/28 02:08:10;;;;;;;15.98;6.85;;;1.50;99.90;;;;;;6147681;23;20021;-92
2024/01/28 02:10:37;;;;;;;23.38;7.95;;;0.60;99.90;;;;;;6147998;23;20045;-91
2024/01/28 02:13:04;;;;;;;16.98;7.65;;;0.60;99.90;;;;;;6149191;23;20512;-92
2024/01/28 02:15:39;;;;;;;20.85;7.80;;;0.60;99.90;;;;;;6149689;23;20539;-91
2024/01/28 02:18:06;;;;;;;23.05;8.18;;;1.60;99.90;;;;;;6149714;23;20025;-92
2024/01/28 02:20:32;;;;;;;22.83;7.53;;;0.60;99.90;;;;;;6149607;23;20014;-92
2024/01/28 02:22:59;;;;;;;20.55;7.97;;;0.60;99.90;;;;;;6149993;23;20009;-92
2024/01/28 02:25:26;;;;;;;24.00;8.75;;;1.70;99.90;;;;;;6149473;23;20064;-93
2024/01/28 02:27:52;;;;;;;21.90;8.77;;;0.60;99.90;;;;;;6149501;23;20760;-92
2024/01/28 02:30:19;;;;;;;17.52;8.60;;;0.70;99.90;;;;;;6149598;23;20045;-92
2024/01/28 02:32:49;;;;;;;29.45;9.00;;;0.70;99.90;;;;;;6149815;23;20089;-93
2024/01/28 02:35:17;;;;;;;19.60;9.02;;;0.80;99.90;;;;;;6149609;23;20060;-92
2024/01/28 02:37:44;;;;;;;22.10;9.20;;;0.80;99.90;;;;;;6149469;23;20020;-93
2024/01/28 02:40:11;;;;;;;24.20;8.13;;;0.80;99.90;;;;;;6149571;23;20013;-93
2024/01/28 02:42:38;;;;;;;20.05;7.97;;;0.90;99.90;;;;;;6149626;23;20047;-93
2024/01/28 02:45:05;;;;;;;22.20;8.32;;;0.80;99.90;;;;;;6173945;23;20017;-92
2024/01/28 02:47:32;;;;;;;24.13;8.73;;;0.90;99.90;;;;;;6173837;23;20013;-92
2024/01/28 02:49:58;;;;;;;19.70;8.50;;;0.90;99.90;;;;;;6149750;23;20021;-92
2024/01/28 02:52:25;;;;;;;20.60;9.43;;;2.20;99.90;;;;;;6149407;23;20009;-92
2024/01/28 02:54:52;;;;;;;17.17;7.88;;;0.90;99.90;;;;;;6149548;23;20013;-92
2024/01/28 02:57:18;;;;;;;24.35;8.43;;;1.00;99.90;;;;;;6149411;23;20102;-92
2024/01/28 02:59:45;;;;;;;22.80;8.18;;;1.80;99.90;;;;;;6173824;23;20009;-92
2024/01/28 03:02:11;;;;;;;20.65;8.63;;;2.20;99.90;;;;;;6149624;23;20100;-92
2024/01/28 03:04:38;;;;;;;23.10;8.57;;;1.00;99.90;;;;;;6149550;23;20014;-93
2024/01/28 03:07:06;;;;;;;17.95;8.50;;;2.00;99.90;;;;;;6149632;23;20020;-92
2024/01/28 03:09:33;;;;;;;24.38;8.57;;;1.00;99.90;;;;;;6174017;23;20066;-92
2024/01/28 03:11:59;;;;;;;22.55;8.90;;;1.00;99.90;;;;;;6149312;23;20021;-92
2024/01/28 03:14:26;;;;;;;18.38;8.70;;;1.00;99.90;;;;;;6149539;23;20014;-92
2024/01/28 03:16:53;;;;;;;23.45;8.13;;;1.10;99.90;;;;;;6149113;23;20322;-92
2024/01/28 03:19:21;;;;;;;23.10;8.48;;;1.00;99.90;;;;;;6149407;23;20025;-92
2024/01/28 03:21:48;;;;;;;24.63;8.82;;;1.00;99.90;;;;;;6148991;23;20060;-92
2024/01/28 03:24:14;;;;;;;23.25;8.93;;;1.10;99.90;;;;;;6149290;23;20100;-93
2024/01/28 03:26:41;;;;;;;25.63;9.20;;;1.10;99.90;;;;;;6148986;23;20018;-92
2024/01/28 03:29:07;;;;;;;18.73;7.68;;;1.10;99.90;;;;;;6149051;23;20018;-92
2024/01/28 03:31:34;;;;;;;20.23;9.05;;;1.10;99.90;;;;;;6149300;23;20014;-93
2024/01/28 03:34:01;;;;;;;20.23;8.68;;;1.10;99.90;;;;;;6173496;23;20006;-92
2024/01/28 03:36:27;;;;;;;21.67;8.40;;;2.30;99.90;;;;;;6149180;23;20077;-93
2024/01/28 03:38:54;;;;;;;23.05;8.52;;;1.10;99.90;;;;;;6149019;23;20336;-93
2024/01/28 03:41:21;;;;;;;17.63;8.02;;;1.10;99.90;;;;;;6148792;23;20095;-92
2024/01/28 03:43:47;;;;;;;21.15;8.48;;;1.10;99.90;;;;;;6148897;23;20017;-93
2024/01/28 03:46:14;;;;;;;22.20;8.27;;;1.10;99.90;;;;;;6148995;23;20325;-92
2024/01/28 03:48:41;;;;;;;23.30;7.68;;;1.10;99.90;;;;;;6148879;23;20453;-91
2024/01/28 03:51:07;;;;;;;20.48;7.70;;;2.20;99.90;;;;;;6148601;23;20021;-92
2024/01/28 03:53:34;;;;;;;17.15;8.27;;;1.10;99.90;;;;;;6148533;23;20010;-92
2024/01/28 03:56:00;;;;;;;22.88;8.80;;;1.10;99.90;;;;;;6148847;23;20096;-92
2024/01/28 03:58:27;;;;;;;24.05;8.40;;;1.10;99.90;;;;;;6148845;23;20016;-93
2024/01/28 04:00:54;;;;;;;20.48;7.60;;;1.10;99.90;;;;;;6148615;23;20314;-93
2024/01/28 04:03:20;;;;;;;20.55;7.28;;;1.70;99.90;;;;;;6148518;23;20014;-91
2024/01/28 04:05:47;;;;;;;16.02;7.82;;;1.10;99.90;;;;;;6148259;23;20017;-92
2024/01/28 04:08:14;;;;;;;17.77;7.93;;;1.10;99.90;;;;;;6148578;23;20063;-92
2024/01/28 04:10:40;;;;;;;17.33;7.75;;;1.40;99.90;;;;;;6172948;23;20595;-92
2024/01/28 04:13:07;;;;;;;26.73;8.73;;;1.10;99.90;;;;;;6148792;23;20088;-93
2024/01/28 04:15:34;;;;;;;19.45;7.35;;;1.00;99.90;;;;;;6148803;23;20449;-89
2024/01/28 04:18:00;;;;;;;17.05;7.30;;;1.70;99.90;;;;;;6148470;23;20060;-92
2024/01/28 04:20:27;;;;;;;23.13;7.20;;;1.00;99.90;;;;;;6148820;23;20005;-92
2024/01/28 04:22:54;;;;;;;15.80;7.57;;;1.00;99.90;;;;;;6172775;23;20014;-93
2024/01/28 04:25:21;;;;;;;15.75;7.15;;;0.90;99.90;;;;;;6148682;23;20017;-92
2024/01/28 04:27:47;;;;;;;19.25;7.00;;;0.90;99.90;;;;;;6173065;23;20013;-92
2024/01/28 04:30:14;;;;;;;20.95;7.72;;;2.20;99.90;;;;;;6148563;23;20029;-92
2024/01/28 04:32:43;;;;;;;18.58;7.82;;;0.90;99.90;;;;;;6148384;23;20022;-93
2024/01/28 04:35:12;;;;;;;18.90;7.85;;;1.80;99.90;;;;;;6148389;23;20546;-93
2024/01/28 04:37:39;;;;;;;21.83;7.97;;;2.10;99.90;;;;;;6148603;23;20006;-92
2024/01/28 04:40:07;;;;;;;22.35;7.30;;;0.80;99.90;;;;;;6173026;23;20013;-92
2024/01/28 04:42:35;;;;;;;23.05;7.90;;;0.80;99.90;;;;;;6172880;23;20093;-93
2024/01/28 04:45:02;;;;;;;15.07;7.40;;;0.70;99.90;;;;;;6148549;23;20018;-91
2024/01/28 04:47:29;;;;;;;18.45;7.32;;;0.70;99.90;;;;;;6148559;23;20048;-92
2024/01/28 04:49:56;;;;;;;20.58;8.18;;;0.60;99.90;;;;;;6148387;23;20021;-92
2024/01/28 04:52:23;;;;;;;16.95;7.75;;;2.10;99.90;;;;;;6148407;23;20013;-93
2024/01/28 04:54:49;;;;;;;16.63;7.30;;;0.60;99.90;;;;;;6148526;23;20017;-93
2024/01/28 04:57:16;;;;;;;16.83;7.28;;;0.50;99.90;;;;;;6148486;23;20009;-92
2024/01/28 04:59:43;;;;;;;19.25;7.65;;;0.50;99.90;;;;;;6148570;23;20064;-91
2024/01/28 05:02:09;;;;;;;14.90;7.55;;;0.40;99.90;;;;;;6148535;23;20048;-91
2024/01/28 05:04:36;;;;;;;17.77;7.35;;;0.40;99.90;;;;;;6172601;23;20387;-93
2024/01/28 05:07:03;;;;;;;17.30;7.88;;;0.40;99.90;;;;;;6148175;23;20063;-92
2024/01/28 05:09:30;;;;;;;23.48;7.85;;;0.30;99.90;;;;;;6172266;23;20017;-92
2024/01/28 05:11:57;;;;;;;28.58;7.85;;;0.30;99.90;;;;;;6148348;23;20437;-92
2024/01/28 05:14:23;;;;;;;20.67;7.85;;;0.30;99.90;;;;;;6148030;23;20016;-92
2024/01/28 05:16:50;;;;;;;27.83;8.82;;;0.20;99.90;;;;;;6148398;23;20013;-92
2024/01/28 05:19:17;;;;;;;16.48;7.95;;;0.20;99.90;;;;;;6148103;23;20020;-92
2024/01/28 05:21:43;;;;;;;18.38;7.82;;;1.10;99.90;;;;;;6148749;23;20017;-91
2024/01/28 05:24:10;;;;;;;21.15;8.15;;;0.20;99.90;;;;;;6172553;23;20021;-91
2024/01/28 05:26:37;;;;;;;24.05;7.63;;;0.20;99.90;;;;;;6148220;23;20013;-92
2024/01/28 05:29:06;;;;;;;16.67;7.38;;;0.20;99.90;;;;;;6148220;23;20045;-92
2024/01/28 05:31:33;;;;;;;26.02;9.52;;;0.20;99.90;;;;;;6148226;23;20040;-92
2024/01/28 05:34:01;;;;;;;19.35;8.20;;;1.00;99.90;;;;;;6148482;23;20037;-93
2024/01/28 05:36:28;;;;;;;15.13;7.30;;;0.20;99.90;;;;;;6148393;23;20010;-93
2024/01/28 05:38:55;;;;;;;18.50;8.07;;;0.20;99.90;;;;;;6148238;23;20014;-92
2024/01/28 05:41:21;;;;;;;18.30;7.85;;;0.20;99.90;;;;;;6172834;23;20025;-92
2024/01/28 05:43:48;;;;;;;18.45;7.38;;;0.20;99.90;;;;;;6148310;23;20017;-91
2024/01/28 05:46:15;;;;;;;18.23;7.88;;;0.20;99.90;;;;;;6148122;23;20025;-92
2024/01/28 05:48:42;;;;;;;17.40;7.70;;;0.10;99.90;;;;;;6150035;23;20353;-92
2024/01/28 05:51:08;;;;;;;23.52;8.05;;;0.20;99.90;;;;;;6150081;23;20056;-91
2024/01/28 05:53:35;;;;;;;18.75;8.07;;;1.30;99.90;;;;;;6150422;23;20013;-92
2024/01/28 05:56:03;;;;;;;20.63;7.63;;;0.20;99.90;;;;;;6150143;23;20072;-92
2024/01/28 05:58:30;;;;;;;18.73;7.68;;;0.20;99.90;;;;;;6149951;23;20013;-91
2024/01/28 06:01:01;;;;;;;17.58;7.85;;;0.10;99.90;;;;;;6149561;23;20092;-92
2024/01/28 06:03:27;;;;;;;14.65;6.93;;;0.10;99.90;;;;;;6173583;23;20017;-92
2024/01/28 06:05:54;;;;;;;18.42;7.88;;;0.10;99.90;;;;;;6149534;23;20013;-91
2024/01/28 06:08:21;;;;;;;16.13;7.55;;;0.00;99.90;;;;;;6150088;23;20017;-91
2024/01/28 06:10:47;;;;;;;20.45;7.55;;;0.00;99.90;;;;;;6150180;23;20010;-91
2024/01/28 06:13:14;;;;;;;20.40;8.38;;;0.00;99.90;;;;;;6174119;23;20440;-90
2024/01/28 06:15:40;;;;;;;22.80;8.32;;;1.20;99.90;;;;;;6174139;23;20014;-92
2024/01/28 06:18:07;;;;;;;19.85;7.70;;;0.00;99.90;;;;;;6149610;23;20452;-91
2024/01/28 06:20:35;;;;;;;21.63;8.18;;;0.00;99.90;;;;;;6150032;23;20013;-92
2024/01/28 06:23:02;;;;;;;19.55;8.32;;;-0.10;99.90;;;;;;6174399;23;20068;-91
2024/01/28 06:25:29;;;;;;;14.90;7.65;;;0.90;99.90;;;;;;6149745;23;20128;-92
2024/01/28 06:27:56;;;;;;;19.40;7.97;;;-0.20;99.90;;;;;;6149664;23;20045;-92
2024/01/28 06:30:22;;;;;;;27.95;8.18;;;-0.10;99.90;;;;;;6174047;23;20013;-91
2024/01/28 06:32:49;;;;;;;17.42;8.02;;;-0.10;99.90;;;;;;6149548;23;20016;-91
2024/01/28 06:35:17;;;;;;;12.60;7.63;;;-0.10;99.90;;;;;;6149507;23;20021;-91
2024/01/28 06:37:44;;;;;;;20.00;7.57;;;-0.10;99.90;;;;;;6149805;23;20009;-91
2024/01/28 06:40:11;;;;;;;15.50;7.47;;;-0.10;99.90;;;;;;6149709;23;20072;-91
2024/01/28 06:42:37;;;;;;;19.98;7.78;;;-0.10;99.90;;;;;;6149347;23;20125;-91
2024/01/28 06:45:07;;;;;;;16.95;7.53;;;1.20;99.90;;;;;;6149630;23;20075;-92
2024/01/28 06:47:34;;;;;;;20.58;7.78;;;-0.20;99.90;;;;;;6149482;23;20033;-91
2024/01/28 06:50:01;;;;;;;16.98;7.07;;;-0.20;99.90;;;;;;6149461;23;20017;-91
2024/01/28 06:52:29;;;;;;;18.52;7.28;;;-0.20;99.90;;;;;;6149271;23;20025;-90
2024/01/28 06:54:55;;;;;;;15.02;7.25;;;-0.20;99.90;;;;;;6149131;23;20433;-90
2024/01/28 06:57:22;;;;;;;22.17;7.65;;;-0.30;99.90;;;;;;6149221;23;20012;-90
2024/01/28 06:59:49;;;;;;;19.00;7.65;;;-0.30;99.90;;;;;;6149739;23;20009;-89
2024/01/28 07:02:15;;;;;;;16.75;7.32;;;-0.30;99.90;;;;;;6148876;23;20100;-89
2024/01/28 07:04:42;;;;;;;15.48;6.88;;;-0.30;99.90;;;;;;6148632;23;20016;-89
2024/01/28 07:07:08;;;;;;;12.68;6.60;;;-0.40;99.90;;;;;;6148974;23;20635;-90
2024/01/28 07:09:35;;;;;;;20.15;7.05;;;-0.40;99.90;;;;;;6148871;23;20345;-89
2024/01/28 07:12:02;;;;;;;16.23;6.68;;;-0.40;99.90;;;;;;6148172;23;20018;-89
2024/01/28 07:14:29;;;;;;;16.50;7.40;;;-0.40;99.90;;;;;;6149206;23;20020;-89
2024/01/28 07:16:55;;;;;;;17.35;7.13;;;-0.40;99.90;;;;;;6148780;23;20010;-88
2024/01/28 07:19:22;;;;;;;18.75;7.32;;;-0.40;99.90;;;;;;6148877;23;20013;-92
2024/01/28 07:21:50;;;;;;;16.92;6.68;;;0.30;99.90;;;;;;6149077;23;20468;-88
2024/01/28 07:24:17;;;;;;;18.40;6.80;;;-0.40;99.90;;;;;;6148760;23;20453;-89
2024/01/28 07:26:46;;;;;;;12.85;6.78;;;-0.40;99.90;;;;;;6148600;23;20024;-89
2024/01/28 07:29:12;;;;;;;13.60;6.20;;;-0.40;99.90;;;;;;6173170;23;20074;-90
2024/01/28 07:31:39;;;;;;;16.02;6.70;;;-0.30;99.90;;;;;;6148795;23;20009;-91
2024/01/28 07:34:06;;;;;;;19.75;6.80;;;-0.30;99.90;;;;;;6173212;23;20345;-89
2024/01/28 07:36:33;;;;;;;16.75;6.18;;;-0.30;99.90;;;;;;6148699;23;20021;-90
2024/01/28 07:39:00;;;;;;;22.23;7.57;;;-0.20;99.90;;;;;;6148741;23;20033;-90
2024/01/28 07:41:28;;;;;;;15.93;6.43;;;-0.20;99.90;;;;;;6148426;23;20021;-90
2024/01/28 07:43:54;;;;;;;16.17;6.75;;;0.60;99.90;;;;;;6172205;23;20088;-89
2024/01/28 07:46:21;;;;;;;16.60;6.60;;;-0.30;99.90;;;;;;6172693;23;20108;-89
2024/01/28 07:48:48;;;;;;;17.30;6.55;;;-0.30;99.90;;;;;;6173119;23;20344;-90
2024/01/28 07:51:14;;;;;;;14.95;6.40;;;-0.30;99.90;;;;;;6172250;23;20014;-89
2024/01/28 07:53:41;;;;;;;17.33;6.78;;;-0.30;99.90;;;;;;6148315;23;20010;-90
2024/01/28 07:56:08;;;;;;;16.90;6.25;;;-0.30;99.90;;;;;;6148508;23;20036;-90
2024/01/28 07:58:34;;;;;;;20.48;6.30;;;-0.20;99.90;;;;;;6148285;23;20006;-89
2024/01/28 08:01:01;;;;;;;16.58;6.20;;;-0.20;99.90;;;;;;6148562;23;20396;-89
2024/01/28 08:03:28;;;;;;;18.17;5.93;;;-0.20;99.90;;;;;;6172790;23;20018;-89
2024/01/28 08:05:54;;;;;;;14.18;6.40;;;-0.20;99.90;;;;;;6172782;23;20095;-89
2024/01/28 08:08:21;;;;;;;17.52;6.22;;;-0.20;99.90;;;;;;6148516;23;20025;-90
2024/01/28 08:10:49;;;;;;;15.43;6.60;;;-0.10;99.90;;;;;;6148156;23;20017;-89
2024/01/28 08:13:16;;;;;;;18.08;6.15;;;-0.10;99.90;;;;;;6148285;23;20020;-90
2024/01/28 08:15:43;;;;;;;14.93;5.45;;;-0.10;99.90;;;;;;6147501;23;20511;-89
2024/01/28 08:18:11;;;;;;;16.17;5.95;;;-0.10;99.90;;;;;;6172272;23;20013;-89
2024/01/28 08:20:37;;;;;;;16.90;6.28;;;-0.10;99.90;;;;;;6148305;23;20017;-89
2024/01/28 08:23:04;;;;;;;16.48;6.03;;;0.00;99.90;;;;;;6148083;23;20010;-89
2024/01/28 08:25:31;;;;;;;20.15;6.50;;;0.00;99.90;;;;;;6148498;23;20444;-89
2024/01/28 08:27:57;;;;;;;16.27;5.97;;;0.00;99.90;;;;;;6147970;23;20018;-89
2024/01/28 08:30:24;;;;;;;15.27;5.65;;;0.10;99.90;;;;;;6148578;23;20015;-89
2024/01/28 08:32:51;;;;;;;14.43;5.30;;;0.20;99.90;;;;;;6148336;23;20029;-89
2024/01/28 08:35:18;;;;;;;15.13;5.88;;;0.20;99.90;;;;;;6172838;23;20013;-89
2024/01/28 08:37:45;;;;;;;14.20;5.75;;;0.30;99.90;;;;;;6148195;23;20140;-89
2024/01/28 08:40:11;;;;;;;11.52;5.18;;;0.30;99.90;;;;;;6148164;23;20446;-89
2024/01/28 08:42:38;;;;;;;17.98;5.47;;;0.40;99.90;;;;;;6147868;23;20728;-89
2024/01/28 08:45:05;;;;;;;13.00;5.72;;;0.40;99.90;;;;;;6148138;23;20097;-89
2024/01/28 08:47:31;;;;;;;12.90;5.68;;;0.50;99.90;;;;;;6147284;23;20092;-90
2024/01/28 08:49:58;;;;;;;11.77;5.05;;;1.00;99.90;;;;;;6148154;23;20014;-89
2024/01/28 08:52:25;;;;;;;16.35;5.18;;;0.50;99.90;;;;;;6147749;23;20068;-89
2024/01/28 08:54:51;;;;;;;14.15;5.82;;;0.60;99.90;;;;;;6172223;23;20418;-89
2024/01/28 08:57:18;;;;;;;13.75;4.90;;;0.60;99.90;;;;;;6147938;23;20013;-88
2024/01/28 08:59:45;;;;;;;11.75;4.80;;;0.60;99.90;;;;;;6147810;23;20017;-89
2024/01/28 09:02:12;;;;;;;12.52;5.20;;;0.60;99.90;;;;;;6147682;23;20013;-91
2024/01/28 09:04:38;;;;;;;13.82;4.75;;;0.60;99.90;;;;;;6147744;23;20021;-91
2024/01/28 09:07:05;;;;;;;20.25;5.35;;;1.10;99.90;;;;;;6147997;23;20016;-90
2024/01/28 09:09:32;;;;;;;17.23;5.28;;;0.70;99.90;;;;;;6148160;23;20068;-89
2024/01/28 09:11:58;;;;;;;13.77;4.82;;;0.70;99.90;;;;;;6147580;23;20029;-91
2024/01/28 09:14:26;;;;;;;14.93;5.28;;;0.70;99.90;;;;;;6147485;23;20043;-90
2024/01/28 09:16:52;;;;;;;12.50;4.80;;;0.70;99.90;;;;;;6172028;23;20020;-90
2024/01/28 09:19:19;;;;;;;13.30;4.45;;;0.90;99.90;;;;;;6153789;23;20018;-90
2024/01/28 09:21:46;;;;;;;13.68;4.80;;;0.90;99.90;;;;;;6151964;23;20014;-90
2024/01/28 09:24:12;;;;;;;17.17;5.40;;;1.00;99.90;;;;;;6149674;23;20068;-91
2024/01/28 09:26:39;;;;;;;13.02;4.95;;;1.10;99.90;;;;;;6150219;23;20009;-90
2024/01/28 09:29:06;;;;;;;14.20;4.18;;;2.20;99.90;;;;;;6174219;23;20018;-91
2024/01/28 09:31:32;;;;;;;10.50;4.45;;;1.30;99.90;;;;;;6149974;23;20352;-91
2024/01/28 09:33:59;;;;;;;9.30;3.97;;;2.70;99.90;;;;;;6174139;23;20376;-90
2024/01/28 09:36:25;;;;;;;11.65;4.13;;;1.40;99.90;;;;;;6150020;23;20009;-90
2024/01/28 09:38:52;;;;;;;12.18;4.28;;;1.60;99.90;;;;;;6149977;23;20388;-90
2024/01/28 09:41:31;;;;;;;8.20;3.70;;;1.60;99.90;;;;;;6150076;23;20021;-90
2024/01/28 09:43:57;;;;;;;13.32;4.53;;;1.80;99.90;;;;;;6149908;23;20013;-90
2024/01/28 09:46:24;;;;;;;17.85;5.55;;;1.90;99.90;;;;;;6149508;23;20013;-90
2024/01/28 09:48:51;;;;;;;12.18;4.38;;;2.00;99.90;;;;;;6173731;23;20017;-90
2024/01/28 09:51:24;;;;;;;11.43;4.22;;;2.10;99.90;;;;;;6149964;23;20524;-91
2024/01/28 09:53:50;;;;;;;11.43;4.30;;;2.20;99.90;;;;;;6173976;23;20457;-90
2024/01/28 09:56:17;;;;;;;9.57;3.80;;;2.30;99.90;;;;;;6174115;23;20048;-90
2024/01/28 09:58:44;;;;;;;12.63;4.28;;;2.40;99.90;;;;;;6149667;23;20005;-90
2024/01/28 10:01:11;;;;;;;9.18;4.13;;;3.60;99.90;;;;;;6149536;23;20515;-90
2024/01/28 10:03:38;;;;;;;11.48;3.85;;;4.00;99.90;;;;;;6149635;23;20032;-92
2024/01/28 10:06:04;;;;;;;12.85;4.05;;;4.20;99.90;;;;;;6149530;23;20072;-91
2024/01/28 10:08:31;;;;;;;11.77;4.25;;;2.90;99.90;;;;;;6148935;23;20017;-91
2024/01/28 10:11:01;;;;;;;8.13;3.88;;;3.80;99.90;;;;;;6149213;23;20040;-91
2024/01/28 10:13:30;;;;;;;10.35;3.85;;;4.70;99.90;;;;;;6149338;23;20016;-91
2024/01/28 10:15:57;;;;;;;9.63;3.63;;;4.80;99.90;;;;;;6148461;23;20055;-92
2024/01/28 10:18:25;;;;;;;14.88;3.85;;;5.10;99.90;;;;;;6149233;23;20384;-91
2024/01/28 10:20:52;;;;;;;8.15;3.70;;;5.10;99.90;;;;;;6149252;23;20030;-90
2024/01/28 10:23:19;;;;;;;9.63;4.10;;;5.30;99.90;;;;;;6148907;23;20021;-91
2024/01/28 10:25:46;;;;;;;10.10;3.78;;;5.70;99.90;;;;;;6148936;23;20148;-91
2024/01/28 10:28:14;;;;;;;10.00;3.50;;;5.50;99.90;;;;;;6173651;23;20516;-90
2024/01/28 10:30:41;;;;;;;8.88;3.58;;;5.00;99.90;;;;;;6172719;23;20022;-90
2024/01/28 10:33:08;;;;;;;8.80;3.30;;;5.10;99.90;;;;;;6173444;23;20014;-92
2024/01/28 10:39:22;;;;;;;8.95;3.40;;;5.80;99.90;;;;;;6109372;23;20019;-91
2024/01/28 10:41:56;;;;;;;10.25;3.40;;;5.80;99.90;;;;;;6143727;23;20018;-91
2024/01/28 10:44:23;;;;;;;8.05;3.22;;;4.70;99.90;;;;;;6148493;23;20017;-91
2024/01/28 10:46:54;;;;;;;8.30;3.47;;;4.70;99.90;;;;;;6148999;23;20070;-92
2024/01/28 10:49:33;;;;;;;7.65;3.28;;;5.90;99.90;;;;;;6149261;23;20627;-91
2024/01/28 10:52:01;;;;;;;11.90;3.35;;;6.20;99.90;;;;;;6149268;23;20013;-92
2024/01/28 10:54:28;;;;;;;9.70;3.05;;;6.10;99.90;;;;;;6148945;23;20009;-91
2024/01/28 10:56:56;;;;;;;8.05;2.65;;;6.20;99.90;;;;;;6173652;23;20005;-92
2024/01/28 10:59:24;;;;;;;8.82;2.75;;;6.10;99.90;;;;;;6124945;23;20740;-93
2024/01/28 11:01:51;;;;;;;8.40;3.70;;;4.70;99.90;;;;;;6149589;23;20021;-91
2024/01/28 11:04:18;;;;;;;9.65;2.92;;;6.00;99.90;;;;;;6149001;23;20100;-95
2024/01/28 11:06:46;;;;;;;7.97;2.80;;;5.20;99.90;;;;;;6149019;23;20048;-93
2024/01/28 11:09:12;;;;;;;10.30;2.70;;;5.40;99.90;;;;;;6148753;23;20013;-94
2024/01/28 11:11:39;;;;;;;7.18;2.70;;;5.20;99.90;;;;;;6148683;23;20040;-93
2024/01/28 11:14:10;;;;;;;8.48;2.95;;;4.90;99.90;;;;;;6148628;23;20045;-95
2024/01/28 11:16:38;;;;;;;7.05;2.72;;;5.00;99.90;;;;;;6149045;23;20010;-94
2024/01/28 11:19:06;;;;;;;9.68;3.03;;;6.20;99.90;;;;;;6148435;23;20028;-94
2024/01/28 11:21:38;;;;;;;7.45;2.72;;;5.10;99.90;;;;;;6148578;23;20009;-95
2024/01/28 11:24:08;;;;;;;7.70;2.78;;;5.00;99.90;;;;;;6148686;23;20014;-94
2024/01/28 11:26:36;;;;;;;7.47;2.90;;;5.10;99.90;;;;;;6148649;23;20013;-95
2024/01/28 11:29:08;;;;;;;11.00;2.95;;;6.20;99.90;;;;;;6148591;23;20344;-95
2024/01/28 11:31:38;;;;;;;7.45;2.90;;;5.90;99.90;;;;;;6173105;23;20468;-95
2024/01/28 11:34:15;;;;;;;7.38;2.50;;;6.70;99.90;;;;;;6148540;23;20010;-94
2024/01/28 11:36:44;;;;;;;7.93;2.22;;;5.30;99.90;;;;;;6172449;23;20802;-94
2024/01/28 11:39:13;;;;;;;6.82;2.92;;;6.90;99.90;;;;;;6148131;23;20032;-95
2024/01/28 11:41:41;;;;;;;7.32;2.85;;;5.40;99.90;;;;;;6148743;23;20010;-95
2024/01/28 11:44:09;;;;;;;7.72;2.63;;;5.40;99.90;;;;;;6147922;23;20076;-93
2024/01/28 11:46:36;;;;;;;7.65;2.78;;;5.40;99.90;;;;;;6148758;23;20088;-94
2024/01/28 11:49:07;;;;;;;5.28;2.20;;;6.40;99.90;;;;;;6148428;23;20018;-92
2024/01/28 11:51:34;;;;;;;8.18;2.42;;;6.30;99.90;;;;;;6148078;23;20021;-94
2024/01/28 11:54:05;;;;;;;7.97;2.58;;;5.80;99.90;;;;;;6148318;23;20141;-91
2024/01/28 11:56:32;;;;;;;9.18;2.67;;;5.60;99.90;;;;;;6148324;23;20014;-92
2024/01/28 11:58:59;;;;;;;6.80;2.13;;;7.00;99.90;;;;;;6148639;23;20024;-92
2024/01/28 12:01:26;;;;;;;11.80;3.08;;;7.00;99.90;;;;;;6148126;23;20060;-93
2024/01/28 12:03:54;;;;;;;6.85;2.50;;;6.60;99.90;;;;;;6148417;23;20017;-94
2024/01/28 12:06:24;;;;;;;9.77;2.80;;;6.40;99.90;;;;;;6147900;23;20072;-93
2024/01/28 12:08:51;;;;;;;6.90;2.00;;;6.60;99.90;;;;;;6148126;23;20900;-93
2024/01/28 12:11:20;;;;;;;5.75;2.00;;;5.90;99.90;;;;;;6147977;23;20418;-93
2024/01/28 12:13:49;;;;;;;10.65;2.67;;;7.10;99.90;;;;;;6148401;23;20010;-93
2024/01/28 12:16:21;;;;;;;8.02;2.90;;;6.80;99.90;;;;;;6148231;23;20014;-94
2024/01/28 12:18:52;;;;;;;8.73;2.25;;;6.00;99.90;;;;;;6148394;23;20325;-94
2024/01/28 12:21:19;;;;;;;5.97;2.42;;;7.50;99.90;;;;;;6148061;23;20491;-95
2024/01/28 12:23:53;;;;;;;7.90;2.40;;;7.30;99.90;;;;;;6172677;23;20021;-83
2024/01/28 12:26:21;;;;;;;8.52;2.22;;;6.20;99.90;;;;;;6146752;23;20017;-86
2024/01/28 12:28:49;;;;;;;6.88;2.30;;;6.30;99.90;;;;;;6148151;23;20017;-93
2024/01/28 12:31:18;;;;;;;8.93;1.92;;;6.30;99.90;;;;;;6148181;23;20329;-93
2024/01/28 12:33:46;;;;;;;10.38;2.22;;;6.30;99.90;;;;;;6149348;23;20056;-93
2024/01/28 12:36:12;;;;;;;6.22;2.10;;;6.30;99.90;;;;;;6149455;23;20336;-94
2024/01/28 12:38:39;;;;;;;6.63;1.95;;;7.70;99.90;;;;;;6149195;23;20044;-94
2024/01/28 12:41:10;;;;;;;8.65;2.00;;;7.50;99.90;;;;;;6148493;23;20022;-92
2024/01/28 12:43:38;;;;;;;7.80;2.00;;;6.40;99.90;;;;;;6149059;23;20028;-94
2024/01/28 12:46:04;;;;;;;4.18;2.05;;;6.60;99.90;;;;;;6148726;23;20068;-94
2024/01/28 12:48:31;;;;;;;7.80;2.40;;;7.10;99.90;;;;;;6149043;23;20017;-95
2024/01/28 12:50:58;;;;;;;6.43;2.05;;;6.50;99.90;;;;;;6174101;23;20080;-94